SU1768 / RA-89059 7700 Squawk Report (26th of May, 2020)

Aircraft SU95 Reg No. RA-89059 Age 4 years old
Model SSJ-100 Jet engines 2 First flight 16-09-15
Registered 26-05-16 Rollout 08-15 Delivered 31-05-16
Construction No. 95100 Line No. 100 Series 95B
ADSHEX 155BE3 Airline name Aeroflot Russian Airlines Owner N/A
Airfield based Moscow-Sheremetyevo~Moscow~RA First tracked N/A

Flight history for RA-89059

Time Lat Lon Altitude Heading Speed Vertical Rate
2020-05-26 12:53:26 GMT 58.161388 55.053955 14,125 97 358 -1536
2020-05-26 12:52:52 GMT 58.165672 54.947845 14,975 89 367 -1344
2020-05-26 12:52:45 GMT 58.165558 54.925083 15,125 87 369 -1472
2020-05-26 12:52:34 GMT 58.164879 54.889435 15,400 87 370 -1536
2020-05-26 12:52:25 GMT 58.164181 54.857025 15,650 87 372 -1600
2020-05-26 12:52:12 GMT 58.163361 54.818233 16,000 87 374 -1856
2020-05-26 12:52:03 GMT 58.162739 54.788818 16,250 87 374 -1792
2020-05-26 12:51:54 GMT 58.162086 54.758057 16,525 87 375 -1600
2020-05-26 12:51:43 GMT 58.161346 54.724140 16,800 87 376 -1600
2020-05-26 12:51:32 GMT 58.160549 54.688110 17,100 87 378 -1600
2020-05-26 12:51:22 GMT 58.159836 54.654945 17,375 87 380 -1600
2020-05-26 12:51:13 GMT 58.159061 54.622192 17,650 87 381 -1792
2020-05-26 12:51:01 GMT 58.158268 54.586578 17,975 87 381 -1984
2020-05-26 12:50:51 GMT 58.157455 54.552437 18,325 87 381 -1920
2020-05-26 12:50:42 GMT 58.156689 54.519653 18,625 87 381 -1856
2020-05-26 12:50:31 GMT 58.155895 54.485596 18,950 87 382 -1728
2020-05-26 12:50:21 GMT 58.155121 54.452316 19,225 87 383 -1728
2020-05-26 12:50:11 GMT 58.154205 54.415459 19,550 87 385 -1728
2020-05-26 12:50:00 GMT 58.153381 54.381439 19,850 87 386 -1792
2020-05-26 12:49:50 GMT 58.152592 54.348450 20,150 87 387 -1984
2020-05-26 12:49:39 GMT 58.151688 54.312862 20,500 87 387 -1920
2020-05-26 12:49:30 GMT 58.150822 54.279053 20,800 87 388 -1728
2020-05-26 12:49:18 GMT 58.149891 54.241241 21,125 87 390 -1792
2020-05-26 12:49:09 GMT 58.148987 54.207520 21,425 87 391 -1792
2020-05-26 12:48:58 GMT 58.148071 54.170658 21,750 87 393 -1728
2020-05-26 12:48:48 GMT 58.147202 54.138233 22,025 87 395 -1600
2020-05-26 12:48:38 GMT 58.146259 54.102356 22,300 87 398 -1600
2020-05-26 12:48:27 GMT 58.145187 54.063011 22,600 87 401 -1536
2020-05-26 12:48:18 GMT 58.144302 54.030121 22,825 87 404 -1536
2020-05-26 12:48:07 GMT 58.143326 53.994781 23,125 87 406 -1984
2020-05-26 12:47:56 GMT 58.142258 53.957314 23,475 86 407 -1920
2020-05-26 12:47:46 GMT 58.141205 53.920456 23,800 86 408 -1920
2020-05-26 12:47:36 GMT 58.140244 53.884926 24,125 86 409 -1984
2020-05-26 12:47:26 GMT 58.139191 53.848068 24,450 86 410 -1856
2020-05-26 12:47:15 GMT 58.138092 53.810326 24,775 86 411 -1920
2020-05-26 12:47:06 GMT 58.137043 53.774506 25,100 86 412 -1856
2020-05-26 12:46:55 GMT 58.135925 53.737244 25,400 86 414 -1664
2020-05-26 12:46:45 GMT 58.134842 53.700020 25,700 86 416 -1600
2020-05-26 12:46:35 GMT 58.133690 53.662994 25,975 86 419 -1728
2020-05-26 12:46:24 GMT 58.132572 53.625092 26,275 86 421 -1856
2020-05-26 12:46:14 GMT 58.131409 53.587410 26,575 86 423 -1920
2020-05-26 12:46:03 GMT 58.130199 53.548737 26,925 86 424 -1792
2020-05-26 12:45:54 GMT 58.128986 53.509918 27,225 86 427 -1728
2020-05-26 12:45:42 GMT 58.127701 53.470016 27,550 86 429 -1792
2020-05-26 12:45:32 GMT 58.126427 53.431183 27,850 86 431 -1920
2020-05-26 12:45:23 GMT 58.125309 53.395935 28,150 86 433 -1856
2020-05-26 12:45:11 GMT 58.123913 53.353638 28,475 86 436 -1792
2020-05-26 12:45:01 GMT 58.122711 53.315678 28,800 86 437 -2176
2020-05-26 12:44:51 GMT 58.121449 53.278015 29,150 86 438 -1984
2020-05-26 12:44:42 GMT 58.120148 53.238949 29,475 86 440 -1728
2020-05-26 12:44:31 GMT 58.118774 53.198280 29,800 86 443 -1792
2020-05-26 12:44:20 GMT 58.117310 53.156464 30,100 86 446 -1792
2020-05-26 12:44:10 GMT 58.115952 53.116333 30,400 86 448 -1664
2020-05-26 12:44:00 GMT 58.114555 53.077423 30,675 86 452 -1728
2020-05-26 12:43:50 GMT 58.113209 53.037964 30,975 86 457 -1920
2020-05-26 12:43:40 GMT 58.111763 52.998138 31,300 86 457 -2368
2020-05-26 12:43:30 GMT 58.110226 52.954651 31,750 86 458 -2368
2020-05-26 12:43:19 GMT 58.108749 52.912815 32,075 86 460 -1088
2020-05-26 12:43:08 GMT 58.107246 52.871521 32,250 86 459 -960
2020-05-26 12:42:59 GMT 58.105774 52.832188 32,400 86 460 -896
2020-05-26 12:42:48 GMT 58.103989 52.783546 32,575 85 463 -704
2020-05-26 12:42:35 GMT 58.102314 52.739319 32,700 85 468 -640
2020-05-26 12:42:26 GMT 58.100777 52.699677 32,825 85 475 -1024
2020-05-26 12:42:15 GMT 58.099091 52.654194 32,975 85 476 -448
2020-05-26 12:42:05 GMT 58.097565 52.614807 33,000 85 476 0
2020-05-26 12:41:55 GMT 58.095890 52.571228 33,000 85 476 0
2020-05-26 12:41:44 GMT 58.094261 52.529480 33,000 85 476 0
2020-05-26 12:41:34 GMT 58.092453 52.484081 33,000 85 477 0
2020-05-26 12:41:23 GMT 58.090851 52.443592 33,000 85 477 0
2020-05-26 12:41:13 GMT 58.089157 52.400444 33,000 85 477 0
2020-05-26 12:41:03 GMT 58.087418 52.357361 33,000 85 477 0
2020-05-26 12:40:52 GMT 58.085724 52.315742 33,000 85 477 0
2020-05-26 12:40:43 GMT 58.083939 52.272240 33,000 85 477 0
2020-05-26 12:40:31 GMT 58.082062 52.227448 33,000 85 476 0
2020-05-26 12:40:22 GMT 58.080433 52.187805 33,000 85 476 0
2020-05-26 12:40:12 GMT 58.078537 52.143417 33,000 85 475 0
2020-05-26 12:40:01 GMT 58.076797 52.102661 33,000 85 475 0
2020-05-26 12:39:51 GMT 58.074966 52.059956 33,000 85 475 0
2020-05-26 12:39:40 GMT 58.072987 52.014771 33,000 85 474 0
2020-05-26 12:39:31 GMT 58.071358 51.976685 33,000 85 474 0
2020-05-26 12:39:19 GMT 58.069309 51.930084 33,000 85 474 -64
2020-05-26 12:39:10 GMT 58.067585 51.891815 33,000 85 474 0
2020-05-26 12:39:00 GMT 58.065720 51.849178 33,000 85 474 0
2020-05-26 12:38:49 GMT 58.063675 51.804657 33,000 85 474 0
2020-05-26 12:38:39 GMT 58.061768 51.761810 33,000 85 474 -64
2020-05-26 12:38:29 GMT 58.059811 51.718689 33,000 85 474 0
2020-05-26 12:38:19 GMT 58.057995 51.679321 33,000 85 474 64
2020-05-26 12:38:08 GMT 58.055923 51.635742 33,000 84 473 128
2020-05-26 12:37:57 GMT 58.054001 51.594276 33,000 84 474 64
2020-05-26 12:37:48 GMT 58.051991 51.552521 33,000 84 475 0
2020-05-26 12:37:37 GMT 58.049973 51.509579 33,000 84 475 0
2020-05-26 12:37:27 GMT 58.047867 51.466164 33,000 84 474 0
2020-05-26 12:37:16 GMT 58.045891 51.424896 33,000 84 473 0
2020-05-26 12:37:06 GMT 58.043564 51.376854 33,000 84 472 0
2020-05-26 12:36:56 GMT 58.041870 51.342213 33,000 84 473 64
2020-05-26 12:36:46 GMT 58.039795 51.299652 33,000 84 473 -64
2020-05-26 12:36:36 GMT 58.037567 51.254765 33,000 84 473 0
2020-05-26 12:36:25 GMT 58.035511 51.213409 33,000 84 473 0
2020-05-26 12:36:15 GMT 58.033401 51.171215 33,000 84 472 0
2020-05-26 12:36:04 GMT 58.031322 51.130188 33,000 84 472 0
2020-05-26 12:35:55 GMT 58.029228 51.088165 33,000 84 472 0
2020-05-26 12:35:44 GMT 58.027039 51.045776 33,000 84 472 -64
2020-05-26 12:35:33 GMT 58.024570 50.997437 33,000 84 471 0
2020-05-26 12:35:23 GMT 58.022552 50.958755 33,025 84 469 0
2020-05-26 12:35:13 GMT 58.020382 50.917053 33,000 84 470 64
2020-05-26 12:35:02 GMT 58.018066 50.873257 33,000 84 470 0
2020-05-26 12:34:52 GMT 58.015961 50.833374 33,000 84 471 -64
2020-05-26 12:34:42 GMT 58.013725 50.790710 33,000 84 470 0
2020-05-26 12:34:31 GMT 58.011429 50.747974 33,000 84 468 0
2020-05-26 12:34:20 GMT 58.009117 50.704926 33,000 84 467 0
2020-05-26 12:34:10 GMT 58.006927 50.664734 33,000 84 468 64
2020-05-26 12:34:00 GMT 58.004837 50.625885 33,000 84 469 -64
2020-05-26 12:33:50 GMT 58.002457 50.583004 33,000 84 466 -128
2020-05-26 12:33:39 GMT 58.000179 50.541321 33,000 84 464 64
2020-05-26 12:33:30 GMT 57.997833 50.498657 33,000 84 463 0
2020-05-26 12:33:19 GMT 57.995544 50.458168 33,000 83 464 -64
2020-05-26 12:33:09 GMT 57.993210 50.416435 33,025 83 464 128
2020-05-26 12:32:59 GMT 57.990784 50.373909 33,000 83 466 0
2020-05-26 12:32:48 GMT 57.988541 50.334305 33,000 83 467 -192
2020-05-26 12:32:37 GMT 57.986115 50.291866 33,000 83 469 64
2020-05-26 12:32:28 GMT 57.983650 50.249908 33,000 83 470 0
2020-05-26 12:32:17 GMT 57.981186 50.207153 33,000 83 470 0
2020-05-26 12:32:06 GMT 57.978745 50.164726 33,000 83 470 -64
2020-05-26 12:31:57 GMT 57.976391 50.124664 33,000 83 470 0
2020-05-26 12:31:46 GMT 57.973827 50.081177 33,000 83 469 64
2020-05-26 12:31:35 GMT 57.971375 50.039623 33,000 83 469 64
2020-05-26 12:31:26 GMT 57.968765 49.995766 33,000 83 468 0
2020-05-26 12:31:15 GMT 57.966522 49.958290 33,000 83 468 0
2020-05-26 12:31:05 GMT 57.963867 49.913723 33,000 83 468 0
2020-05-26 12:30:55 GMT 57.961445 49.873810 33,000 83 467 64
2020-05-26 12:30:44 GMT 57.958794 49.830780 33,000 83 467 0
2020-05-26 12:30:34 GMT 57.956234 49.789032 33,000 83 467 64
2020-05-26 12:30:24 GMT 57.953613 49.746891 33,000 83 468 -64
2020-05-26 12:30:13 GMT 57.951111 49.706268 33,000 83 468 0
2020-05-26 12:30:02 GMT 57.948318 49.661774 33,000 83 468 0
2020-05-26 12:29:53 GMT 57.945850 49.621857 33,000 83 467 0
2020-05-26 12:29:42 GMT 57.943199 49.580475 33,000 83 467 0
2020-05-26 12:29:31 GMT 57.940544 49.538177 33,000 83 466 0
2020-05-26 12:29:22 GMT 57.937889 49.496887 33,000 83 466 0
2020-05-26 12:29:10 GMT 57.935257 49.455578 33,000 83 466 0
2020-05-26 12:29:01 GMT 57.932678 49.416046 33,000 83 465 0
2020-05-26 12:28:50 GMT 57.929855 49.372028 33,000 83 465 0
2020-05-26 12:28:40 GMT 57.927418 49.334381 33,000 83 465 0
2020-05-26 12:28:29 GMT 57.924545 49.290073 33,000 83 465 -64
2020-05-26 12:28:19 GMT 57.921879 49.248413 33,000 83 465 -64
2020-05-26 12:28:08 GMT 57.919270 49.206757 33,000 83 464 64
2020-05-26 12:27:58 GMT 57.916523 49.167664 33,000 80 466 0
2020-05-26 12:27:49 GMT 57.912426 49.126923 33,000 77 469 0
2020-05-26 12:27:37 GMT 57.906647 49.083813 33,000 73 473 0
2020-05-26 12:27:28 GMT 57.900330 49.046513 33,000 70 476 0
2020-05-26 12:27:18 GMT 57.891495 49.003807 33,000 66 478 -64
2020-05-26 12:27:07 GMT 57.882587 48.965698 33,000 66 478 64
2020-05-26 12:26:56 GMT 57.873138 48.925751 33,000 66 478 64
2020-05-26 12:26:47 GMT 57.863983 48.887211 33,000 66 478 0
2020-05-26 12:26:36 GMT 57.854736 48.848049 33,000 66 477 0
2020-05-26 12:26:26 GMT 57.845951 48.811066 33,000 66 477 0
2020-05-26 12:26:16 GMT 57.836700 48.772209 33,000 65 476 0
2020-05-26 12:26:05 GMT 57.827179 48.732250 33,000 65 476 0
2020-05-26 12:25:54 GMT 57.817383 48.691319 33,000 65 475 64
2020-05-26 12:25:45 GMT 57.808430 48.653870 33,000 65 475 0
2020-05-26 12:25:34 GMT 57.799072 48.614777 33,000 65 474 0
2020-05-26 12:25:23 GMT 57.790009 48.577202 33,000 65 474 0
2020-05-26 12:25:14 GMT 57.780403 48.537140 33,000 65 474 0
2020-05-26 12:25:03 GMT 57.771420 48.499969 33,000 65 475 0
2020-05-26 12:24:53 GMT 57.761719 48.459808 33,000 65 475 0
2020-05-26 12:24:43 GMT 57.752892 48.423248 33,000 65 475 0
2020-05-26 12:24:32 GMT 57.743023 48.382507 33,000 65 475 0
2020-05-26 12:24:22 GMT 57.734131 48.345886 33,000 65 475 0
2020-05-26 12:24:12 GMT 57.724773 48.307507 33,000 65 475 0
2020-05-26 12:24:00 GMT 57.715347 48.268776 33,000 65 474 0
2020-05-26 12:23:50 GMT 57.706013 48.230511 33,000 65 474 0
2020-05-26 12:23:40 GMT 57.696053 48.189846 33,000 65 473 0
2020-05-26 12:23:30 GMT 57.686558 48.150860 33,000 65 473 0
2020-05-26 12:23:20 GMT 57.676849 48.111446 33,000 65 474 0
2020-05-26 12:23:09 GMT 57.667191 48.072140 33,000 65 474 -64
2020-05-26 12:22:58 GMT 57.658157 48.035328 33,000 65 474 -64
2020-05-26 12:22:49 GMT 57.648849 47.997761 33,000 65 473 0
2020-05-26 12:22:37 GMT 57.639221 47.958672 33,000 65 473 0
2020-05-26 12:22:28 GMT 57.629608 47.919872 33,000 65 473 0
2020-05-26 12:22:17 GMT 57.620407 47.882969 33,000 65 473 64
2020-05-26 12:22:09 GMT 57.613235 47.854053 33,000 65 474 -64
2020-05-26 12:22:06 GMT 57.610474 47.843056 33,000 65 474 64
2020-05-26 12:21:59 GMT 57.603699 47.815845 33,000 65 474 -64
2020-05-26 12:21:45 GMT 57.591263 47.766075 33,000 64 474 0
2020-05-26 12:21:38 GMT 57.584698 47.740025 33,000 64 474 -64
2020-05-26 12:21:35 GMT 57.581909 47.728813 33,000 64 474 0
2020-05-26 12:21:26 GMT 57.571838 47.688644 33,000 64 474 0
2020-05-26 12:21:18 GMT 57.565842 47.664871 33,000 64 474 0
2020-05-26 12:21:15 GMT 57.562679 47.652313 33,000 64 475 0
2020-05-26 12:21:05 GMT 57.553482 47.615864 33,000 64 475 -64
2020-05-26 12:20:57 GMT 57.546528 47.588345 33,000 64 475 128
2020-05-26 12:20:53 GMT 57.543137 47.574921 33,000 64 475 0
2020-05-26 12:20:47 GMT 57.537357 47.551929 33,000 64 475 64
2020-05-26 12:20:44 GMT 57.533958 47.538551 33,000 64 475 0
2020-05-26 12:20:36 GMT 57.527756 47.513893 33,000 64 475 0
2020-05-26 12:20:32 GMT 57.522675 47.493725 33,000 64 475 -128
2020-05-26 12:20:26 GMT 57.518131 47.475643 33,000 64 475 128
2020-05-26 12:20:22 GMT 57.514160 47.459824 33,000 64 475 -64
2020-05-26 12:20:16 GMT 57.508438 47.436817 33,000 65 476 -128
2020-05-26 12:20:03 GMT 57.496250 47.387577 33,000 65 475 -64
2020-05-26 12:19:56 GMT 57.490246 47.362682 33,000 66 474 0
2020-05-26 12:19:52 GMT 57.487061 47.349529 33,000 66 474 0
2020-05-26 12:19:46 GMT 57.480927 47.323868 33,000 66 474 0
2020-05-26 12:19:43 GMT 57.477722 47.310390 33,000 66 474 0
2020-05-26 12:19:35 GMT 57.471809 47.285774 33,000 66 474 0
2020-05-26 12:19:32 GMT 57.468784 47.273193 33,000 66 474 -128
2020-05-26 12:19:24 GMT 57.462593 47.247234 33,025 65 474 -64
2020-05-26 12:19:21 GMT 57.458870 47.231907 33,025 65 474 0
2020-05-26 12:19:12 GMT 57.450073 47.195377 33,025 65 473 128
2020-05-26 12:19:05 GMT 57.444717 47.173061 33,000 65 472 0
2020-05-26 12:19:01 GMT 57.440990 47.157749 33,000 65 473 64
2020-05-26 12:18:54 GMT 57.435287 47.134007 32,975 65 474 -64
2020-05-26 12:18:50 GMT 57.431541 47.118587 33,000 65 474 -128
2020-05-26 12:18:43 GMT 57.425308 47.092979 33,000 65 473 -64
2020-05-26 12:18:29 GMT 57.413132 47.042854 33,000 65 472 64
2020-05-26 12:18:22 GMT 57.406906 47.017021 33,000 65 472 0
2020-05-26 12:18:13 GMT 57.398666 46.983292 33,000 65 471 0
2020-05-26 12:18:03 GMT 57.389736 46.946529 33,000 65 471 -64
2020-05-26 12:17:58 GMT 57.385456 46.929073 33,000 65 471 -128
2020-05-26 12:17:51 GMT 57.379356 46.903736 33,025 65 471 0
2020-05-26 12:17:42 GMT 57.371445 46.871132 33,000 65 472 0
2020-05-26 12:17:31 GMT 57.359665 46.829308 33,025 58 478 -64
2020-05-26 12:17:22 GMT 57.347515 46.795555 33,025 53 481 64
2020-05-26 12:17:11 GMT 57.333458 46.763748 33,000 47 484 128
2020-05-26 12:17:01 GMT 57.317768 46.734688 32,975 41 487 0
2020-05-26 12:16:51 GMT 57.299801 46.707489 33,000 36 489 0
2020-05-26 12:16:40 GMT 57.280712 46.681438 33,000 36 489 -64
2020-05-26 12:16:31 GMT 57.263069 46.657341 33,000 36 489 64
2020-05-26 12:16:20 GMT 57.243378 46.630493 33,000 36 489 0
2020-05-26 12:16:10 GMT 57.225494 46.606152 33,000 36 489 64
2020-05-26 12:16:00 GMT 57.207207 46.581322 33,000 36 489 64
2020-05-26 12:15:49 GMT 57.188370 46.555767 33,000 36 491 64
2020-05-26 12:15:39 GMT 57.170013 46.530876 33,000 36 492 64
2020-05-26 12:15:29 GMT 57.150787 46.504860 33,000 36 492 -64
2020-05-26 12:15:19 GMT 57.132771 46.480583 33,000 36 492 64
2020-05-26 12:15:08 GMT 57.112839 46.453629 33,000 36 493 64
2020-05-26 12:14:58 GMT 57.094345 46.428654 33,000 36 493 -64
2020-05-26 12:14:48 GMT 57.076164 46.404213 33,000 36 495 -64
2020-05-26 12:14:38 GMT 57.057541 46.379139 33,000 36 494 -64
2020-05-26 12:14:28 GMT 57.038681 46.353722 33,000 36 493 -64
2020-05-26 12:14:18 GMT 57.019604 46.328194 33,025 36 493 0
2020-05-26 12:14:07 GMT 57.000889 46.303032 33,025 36 491 128
2020-05-26 12:13:56 GMT 56.981552 46.277245 33,000 36 491 0
2020-05-26 12:13:47 GMT 56.963459 46.252972 33,000 36 491 0
2020-05-26 12:13:37 GMT 56.944885 46.228252 33,000 36 491 0
2020-05-26 12:13:27 GMT 56.925938 46.203003 33,000 36 491 -64
2020-05-26 12:13:16 GMT 56.906712 46.177399 33,000 36 491 0
2020-05-26 12:13:06 GMT 56.888351 46.153049 33,000 36 491 0
2020-05-26 12:12:56 GMT 56.869904 46.128502 33,000 35 490 64
2020-05-26 12:12:45 GMT 56.850952 46.103355 33,000 36 489 0
2020-05-26 12:12:36 GMT 56.832321 46.078697 33,000 35 490 -64
2020-05-26 12:12:25 GMT 56.813980 46.054420 33,000 35 490 -64
2020-05-26 12:12:15 GMT 56.795078 46.029438 33,000 35 489 0
2020-05-26 12:12:04 GMT 56.776474 46.004906 33,000 35 489 0
2020-05-26 12:11:55 GMT 56.758026 45.980618 33,000 35 489 0
2020-05-26 12:11:44 GMT 56.738937 45.955467 33,000 35 490 0
2020-05-26 12:11:34 GMT 56.720490 45.931263 33,000 35 491 64
2020-05-26 12:11:24 GMT 56.701492 45.906284 33,000 35 492 0
2020-05-26 12:11:13 GMT 56.682983 45.882008 33,000 35 492 0
2020-05-26 12:11:04 GMT 56.663940 45.857021 33,000 35 492 0
2020-05-26 12:10:53 GMT 56.644547 45.831699 33,000 35 492 0
2020-05-26 12:10:43 GMT 56.626282 45.807755 33,000 35 491 0
2020-05-26 12:10:32 GMT 56.607243 45.782951 33,000 35 490 0
2020-05-26 12:10:23 GMT 56.588333 45.758224 33,000 35 489 0
2020-05-26 12:10:12 GMT 56.569954 45.734283 33,000 35 488 0
2020-05-26 12:10:02 GMT 56.550842 45.709366 33,000 35 488 0
2020-05-26 12:09:51 GMT 56.532154 45.685101 33,000 35 489 0
2020-05-26 12:09:42 GMT 56.513718 45.661095 33,000 35 490 0
2020-05-26 12:09:31 GMT 56.494865 45.636604 33,000 35 490 -64
2020-05-26 12:09:21 GMT 56.476009 45.612228 33,000 35 490 0
2020-05-26 12:09:10 GMT 56.457066 45.587597 33,000 35 490 0
2020-05-26 12:09:01 GMT 56.438736 45.563881 33,000 35 490 0
2020-05-26 12:08:48 GMT 56.416237 45.534809 33,000 35 491 0
2020-05-26 12:08:39 GMT 56.399712 45.513523 33,000 35 490 0
2020-05-26 12:08:29 GMT 56.381287 45.489807 33,000 35 489 0
2020-05-26 12:08:19 GMT 56.361969 45.465088 33,000 35 489 0
2020-05-26 12:08:10 GMT 56.344299 45.442616 33,000 35 488 0
2020-05-26 12:07:59 GMT 56.324982 45.418228 33,000 34 488 0
2020-05-26 12:07:49 GMT 56.306168 45.394760 33,000 34 488 64
2020-05-26 12:07:37 GMT 56.283981 45.367100 33,000 34 488 0
2020-05-26 12:07:26 GMT 56.263687 45.341866 33,000 34 487 64
2020-05-26 12:07:18 GMT 56.248695 45.323154 33,000 34 487 64
2020-05-26 12:07:08 GMT 56.230728 45.300793 33,000 34 487 -64
2020-05-26 12:06:57 GMT 56.211090 45.276321 33,000 34 487 -64
2020-05-26 12:06:48 GMT 56.192879 45.253632 33,000 34 487 0
2020-05-26 12:06:39 GMT 56.176167 45.232861 33,000 34 486 64
2020-05-26 12:06:35 GMT 56.170029 45.225220 33,000 34 486 0
2020-05-26 12:06:27 GMT 56.155079 45.206680 33,000 34 486 64
2020-05-26 12:06:13 GMT 56.129333 45.174782 33,000 34 487 -64
2020-05-26 12:06:06 GMT 56.116562 45.158970 33,000 34 488 64
2020-05-26 12:05:51 GMT 56.088230 45.124195 33,025 34 489 -64
2020-05-26 12:05:46 GMT 56.078968 45.112865 33,025 34 490 128
2020-05-26 12:05:33 GMT 56.055222 45.083145 33,000 37 488 -64
2020-05-26 12:05:25 GMT 56.041809 45.062172 33,000 44 482 64
2020-05-26 12:05:16 GMT 56.027435 45.033627 33,000 51 475 0
2020-05-26 12:05:04 GMT 56.014114 44.999084 33,000 77 444 0
2020-05-26 12:04:55 GMT 56.004639 44.965958 33,000 66 457 128
2020-05-26 12:04:44 GMT 55.996857 44.927341 33,000 74 448 -256
2020-05-26 12:04:35 GMT 55.992462 44.892715 33,000 79 442 128
2020-05-26 12:04:24 GMT 55.988663 44.857178 33,000 79 442 0
2020-05-26 12:04:14 GMT 55.984634 44.819473 33,000 79 442 0
2020-05-26 12:04:03 GMT 55.980789 44.783520 33,000 79 443 0
2020-05-26 12:03:54 GMT 55.976898 44.747147 33,000 79 442 -64
2020-05-26 12:03:43 GMT 55.972828 44.709461 33,000 79 443 0
2020-05-26 12:03:33 GMT 55.968918 44.673244 33,000 79 443 0
2020-05-26 12:03:23 GMT 55.965042 44.637699 33,000 79 442 0
2020-05-26 12:03:12 GMT 55.960957 44.599941 33,000 79 442 0
2020-05-26 12:03:05 GMT 55.957653 44.569733 33,000 78 441 64
2020-05-26 12:03:02 GMT 55.956860 44.562523 33,000 78 441 64
2020-05-26 12:02:52 GMT 55.953045 44.527843 33,000 78 441 0
2020-05-26 12:02:44 GMT 55.949799 44.498207 33,000 78 441 0
2020-05-26 12:02:41 GMT 55.948994 44.490681 33,000 78 441 64
2020-05-26 12:02:32 GMT 55.945038 44.455261 33,000 78 442 64
2020-05-26 12:02:22 GMT 55.940941 44.417896 33,000 78 442 -64
2020-05-26 12:02:11 GMT 55.936981 44.382271 33,025 78 442 0
2020-05-26 12:02:01 GMT 55.932861 44.345146 33,000 78 442 64
2020-05-26 12:01:51 GMT 55.928837 44.309319 33,000 78 442 64
2020-05-26 12:01:41 GMT 55.924576 44.271156 33,000 78 442 0
2020-05-26 12:01:30 GMT 55.920639 44.235703 33,000 78 442 0
2020-05-26 12:01:19 GMT 55.916313 44.197311 33,000 78 441 0
2020-05-26 12:01:09 GMT 55.912399 44.162460 33,000 78 441 -64
2020-05-26 12:01:00 GMT 55.908417 44.127087 33,000 78 440 64
2020-05-26 12:00:51 GMT 55.904583 44.093540 33,000 78 440 -64
2020-05-26 12:00:39 GMT 55.895691 44.015434 33,000 78 441 64
2020-05-26 12:00:28 GMT 55.895691 44.015434 33,000 78 443 64
2020-05-26 12:00:18 GMT 55.891479 43.978771 33,000 78 444 0
2020-05-26 12:00:08 GMT 55.885914 43.930290 33,000 78 445 0
2020-05-26 11:59:58 GMT 55.883217 43.906860 33,000 78 446 64
2020-05-26 11:59:47 GMT 55.878708 43.867661 33,000 78 446 -64
2020-05-26 11:59:36 GMT 55.874325 43.829700 33,000 78 445 0
2020-05-26 11:59:27 GMT 55.870132 43.793652 33,000 78 445 -64
2020-05-26 11:59:16 GMT 55.865936 43.757381 33,000 78 444 0
2020-05-26 11:59:05 GMT 55.861336 43.718204 33,000 78 444 0
2020-05-26 11:58:56 GMT 55.857193 43.682587 33,000 78 444 0
2020-05-26 11:58:47 GMT 55.853607 43.652115 33,000 78 444 0
2020-05-26 11:58:36 GMT 55.849323 43.615551 33,000 78 444 0
2020-05-26 11:58:30 GMT 55.846348 43.590057 33,000 78 444 0
2020-05-26 11:58:26 GMT 55.844971 43.578602 33,000 78 445 0
2020-05-26 11:58:15 GMT 55.840530 43.540733 33,000 78 445 0
2020-05-26 11:58:06 GMT 55.836338 43.505344 33,000 78 444 0
2020-05-26 11:57:55 GMT 55.832100 43.469639 33,000 78 444 -128
2020-05-26 11:57:47 GMT 55.828583 43.439693 33,000 78 443 0
2020-05-26 11:57:40 GMT 55.825863 43.416679 33,000 78 442 64
2020-05-26 11:57:36 GMT 55.824097 43.401989 33,000 78 442 0
2020-05-26 11:57:33 GMT 55.822327 43.387157 33,000 78 442 0
2020-05-26 11:57:27 GMT 55.820045 43.368099 33,000 77 441 -64
2020-05-26 11:57:24 GMT 55.818974 43.359089 33,000 77 441 -64
2020-05-26 11:57:17 GMT 55.815628 43.331493 33,000 77 441 0
2020-05-26 11:57:06 GMT 55.811279 43.295620 33,000 77 442 0
2020-05-26 11:56:56 GMT 55.806824 43.259697 33,000 77 442 0
2020-05-26 11:56:44 GMT 55.800400 43.197556 33,000 80 439 -64
2020-05-26 11:56:33 GMT 55.799194 43.177017 33,000 85 431 64
2020-05-26 11:56:29 GMT 55.798630 43.163223 33,025 86 428 0
2020-05-26 11:56:25 GMT 55.798306 43.151035 33,000 88 427 64
2020-05-26 11:56:16 GMT 55.798954 43.091042 33,000 95 416 0
2020-05-26 11:56:09 GMT 55.798954 43.091042 33,000 95 417 0
2020-05-26 11:56:05 GMT 55.799515 43.080307 33,000 95 417 -128
2020-05-26 11:55:55 GMT 55.801437 43.046928 33,000 95 416 0
2020-05-26 11:55:45 GMT 55.803425 43.012676 33,000 95 415 0
2020-05-26 11:55:41 GMT 55.804184 42.999073 33,000 95 415 64
2020-05-26 11:55:34 GMT 55.805374 42.977852 33,000 95 414 64
2020-05-26 11:55:31 GMT 55.806080 42.965553 33,000 95 414 -64
2020-05-26 11:55:25 GMT 55.807343 42.943810 33,000 95 414 0
2020-05-26 11:55:21 GMT 55.808033 42.931396 33,000 95 415 0
2020-05-26 11:55:13 GMT 55.810135 42.894035 33,000 95 415 0
2020-05-26 11:55:10 GMT 55.810135 42.894035 33,000 95 415 0
2020-05-26 11:55:04 GMT 55.811279 42.873978 33,000 95 414 0
2020-05-26 11:55:00 GMT 55.812176 42.858009 33,000 95 414 -64
2020-05-26 11:54:53 GMT 55.813202 42.839211 33,000 95 414 0
2020-05-26 11:54:43 GMT 55.815079 42.805733 33,000 95 413 0
2020-05-26 11:54:34 GMT 55.817001 42.770943 33,000 95 413 0
2020-05-26 11:54:29 GMT 55.817871 42.755127 33,000 95 413 0
2020-05-26 11:54:23 GMT 55.818924 42.735901 33,000 95 413 0
2020-05-26 11:54:20 GMT 55.819473 42.725662 33,000 95 413 0
2020-05-26 11:54:13 GMT 55.820801 42.701363 33,000 95 413 0
2020-05-26 11:54:03 GMT 55.822651 42.667980 33,000 95 414 0
2020-05-26 11:53:56 GMT 55.823956 42.643349 33,000 95 414 64
2020-05-26 11:53:50 GMT 55.825165 42.621372 33,000 95 414 0
2020-05-26 11:53:40 GMT 55.826702 42.592533 33,000 95 412 0
2020-05-26 11:53:32 GMT 55.828236 42.563782 33,000 95 413 0
2020-05-26 11:53:29 GMT 55.828796 42.553825 33,000 95 412 0
2020-05-26 11:53:19 GMT 55.830597 42.519421 33,000 95 412 64
2020-05-26 11:53:09 GMT 55.833710 42.460575 33,000 95 414 0
2020-05-26 11:53:02 GMT 55.833710 42.460575 33,000 95 412 0
2020-05-26 11:52:51 GMT 55.835495 42.426537 33,000 95 413 0
2020-05-26 11:52:41 GMT 55.837326 42.390915 33,000 95 414 0
2020-05-26 11:52:31 GMT 55.839111 42.356705 33,000 95 414 0
2020-05-26 11:52:21 GMT 55.840805 42.323196 33,000 95 414 0
2020-05-26 11:52:10 GMT 55.842590 42.288540 33,000 95 413 0
2020-05-26 11:52:00 GMT 55.844376 42.253086 33,000 95 413 0
2020-05-26 11:51:56 GMT 55.845016 42.240768 33,000 95 413 64
2020-05-26 11:51:47 GMT 55.847046 42.199429 33,000 95 412 -64
2020-05-26 11:51:37 GMT 55.848404 42.172768 33,025 95 412 -128
2020-05-26 11:51:34 GMT 55.848721 42.165787 33,025 95 412 128
2020-05-26 11:51:28 GMT 55.849884 42.142097 33,000 95 411 0
2020-05-26 11:51:24 GMT 55.850418 42.131905 33,000 95 411 0
2020-05-26 11:51:19 GMT 55.851189 42.115662 33,000 95 412 -64
2020-05-26 11:51:14 GMT 55.852020 42.098526 33,000 95 412 -128
2020-05-26 11:51:09 GMT 55.852863 42.081326 33,000 95 412 0
2020-05-26 11:51:03 GMT 55.853794 42.062531 33,025 94 412 64
2020-05-26 11:50:59 GMT 55.854538 42.047340 33,000 94 411 64
2020-05-26 11:50:53 GMT 55.855408 42.029114 33,000 94 411 64
2020-05-26 11:50:47 GMT 55.856865 41.998756 33,025 94 411 0
2020-05-26 11:50:38 GMT 55.857891 41.977985 33,025 94 411 128
2020-05-26 11:50:28 GMT 55.859573 41.942886 32,975 95 411 -192
2020-05-26 11:50:25 GMT 55.860359 41.927261 32,975 95 411 -192
2020-05-26 11:50:16 GMT 55.861542 41.904686 32,975 95 411 -256
2020-05-26 11:50:08 GMT 55.863106 41.876106 33,025 86 411 256
2020-05-26 11:49:58 GMT 55.864471 41.839184 33,025 90 410 -64
2020-05-26 11:49:55 GMT 55.864548 41.830528 33,025 90 410 -64
2020-05-26 11:49:47 GMT 55.864197 41.805893 33,025 86 411 256
2020-05-26 11:49:44 GMT 55.863602 41.791325 33,000 84 413 64
2020-05-26 11:49:36 GMT 55.862000 41.767441 33,000 80 420 64
2020-05-26 11:49:33 GMT 55.861057 41.757145 33,000 79 422 64
2020-05-26 11:49:26 GMT 55.853283 41.700668 33,000 75 430 -64
2020-05-26 11:49:17 GMT 55.853283 41.700668 33,000 73 434 0
2020-05-26 11:49:11 GMT 55.850281 41.682629 33,000 73 434 -64
2020-05-26 11:49:06 GMT 55.847672 41.666981 33,000 73 434 0
2020-05-26 11:49:01 GMT 55.844467 41.647755 33,000 73 434 0
2020-05-26 11:48:56 GMT 55.841599 41.630802 33,000 73 434 -64
2020-05-26 11:48:49 GMT 55.837219 41.604626 33,000 73 433 0
2020-05-26 11:48:45 GMT 55.835827 41.596382 33,000 73 433 0
2020-05-26 11:48:36 GMT 55.828934 41.555443 33,000 73 431 -64
2020-05-26 11:48:25 GMT 55.824051 41.526405 33,000 73 431 -64
2020-05-26 11:48:14 GMT 55.817993 41.490471 33,000 73 431 -64
2020-05-26 11:48:05 GMT 55.810638 41.447041 33,000 73 431 64
2020-05-26 11:47:56 GMT 55.806961 41.425583 33,000 73 431 0
2020-05-26 11:47:53 GMT 55.805798 41.418716 33,000 73 431 0
2020-05-26 11:47:44 GMT 55.800446 41.387131 33,000 73 432 0
2020-05-26 11:47:36 GMT 55.795898 41.360531 33,000 73 432 0
2020-05-26 11:47:33 GMT 55.794300 41.351166 33,000 73 432 64
2020-05-26 11:47:24 GMT 55.788895 41.319496 33,000 73 431 0
2020-05-26 11:47:14 GMT 55.782806 41.283791 33,000 73 431 0
2020-05-26 11:47:03 GMT 55.777039 41.250252 33,000 72 430 -64
2020-05-26 11:46:52 GMT 55.770603 41.212723 33,000 73 430 0
2020-05-26 11:46:42 GMT 55.764999 41.180168 33,000 73 429 0
2020-05-26 11:46:32 GMT 55.759094 41.145714 33,000 73 428 64
2020-05-26 11:46:22 GMT 55.753147 41.111183 33,000 73 428 0
2020-05-26 11:46:17 GMT 55.750488 41.095776 33,000 73 428 0
2020-05-26 11:46:12 GMT 55.747421 41.078049 33,000 73 427 -64
2020-05-26 11:46:06 GMT 55.743557 41.055737 33,000 72 426 0
2020-05-26 11:46:03 GMT 55.742249 41.048084 33,000 73 427 0
2020-05-26 11:46:00 GMT 55.740555 41.038181 33,000 73 427 0
2020-05-26 11:45:56 GMT 55.737854 41.022617 33,000 72 426 0
2020-05-26 11:45:52 GMT 55.735657 41.009884 33,000 72 426 -64
2020-05-26 11:45:46 GMT 55.732201 40.989902 33,000 72 426 64
2020-05-26 11:45:43 GMT 55.728653 40.969349 33,000 72 426 0
2020-05-26 11:45:40 GMT 55.728653 40.969349 33,000 72 426 0
2020-05-26 11:45:34 GMT 55.724937 40.948105 33,000 72 426 -64
2020-05-26 11:45:31 GMT 55.723774 40.941322 33,000 72 426 -64
2020-05-26 11:45:28 GMT 55.722015 40.931065 33,000 72 427 -64
2020-05-26 11:45:19 GMT 55.714928 40.890427 33,000 72 426 0
2020-05-26 11:45:16 GMT 55.714928 40.890427 33,000 72 425 0
2020-05-26 11:45:08 GMT 55.710342 40.864063 33,000 72 426 0
2020-05-26 11:45:01 GMT 55.705948 40.838844 33,000 72 426 0
2020-05-26 11:44:57 GMT 55.704254 40.829189 33,000 72 426 0
2020-05-26 11:44:54 GMT 55.702240 40.817703 33,000 72 426 64
2020-05-26 11:44:49 GMT 55.698990 40.799061 33,000 72 426 0
2020-05-26 11:44:45 GMT 55.696335 40.783829 33,000 72 426 0
2020-05-26 11:44:38 GMT 55.690201 40.748875 33,000 72 425 -64
2020-05-26 11:44:30 GMT 55.687820 40.735306 33,000 72 425 0
2020-05-26 11:44:27 GMT 55.686672 40.728806 33,000 72 424 -64
2020-05-26 11:44:23 GMT 55.684063 40.714046 33,000 72 424 0
2020-05-26 11:44:17 GMT 55.679993 40.690945 33,000 72 424 64
2020-05-26 11:44:12 GMT 55.678104 40.680313 33,000 72 424 0
2020-05-26 11:44:09 GMT 55.676010 40.668552 33,000 72 423 0
2020-05-26 11:44:06 GMT 55.674007 40.657394 33,000 72 424 -64
2020-05-26 11:43:59 GMT 55.670334 40.637226 33,000 72 424 0
2020-05-26 11:43:56 GMT 55.668049 40.624611 33,000 71 425 0
2020-05-26 11:43:49 GMT 55.663651 40.601059 33,000 71 425 0
2020-05-26 11:43:46 GMT 55.661579 40.589848 33,000 71 427 -64
2020-05-26 11:43:38 GMT 55.657063 40.565903 33,000 71 426 0
2020-05-26 11:43:33 GMT 55.653805 40.548820 33,000 71 426 -64
2020-05-26 11:43:29 GMT 55.648865 40.522655 33,000 71 427 0
2020-05-26 11:43:25 GMT 55.648865 40.522655 33,000 71 427 -64
2020-05-26 11:43:21 GMT 55.646358 40.509422 33,000 71 427 0
2020-05-26 11:43:18 GMT 55.644333 40.498604 33,000 71 428 0
2020-05-26 11:43:12 GMT 55.640488 40.478378 33,000 71 428 64
2020-05-26 11:43:07 GMT 55.637745 40.463760 33,000 71 428 64
2020-05-26 11:43:03 GMT 55.635185 40.450459 33,000 71 428 128
2020-05-26 11:42:58 GMT 55.632343 40.435524 33,000 71 429 0
2020-05-26 11:42:54 GMT 55.628899 40.417328 33,000 71 429 -128
2020-05-26 11:42:49 GMT 55.625748 40.400806 33,000 71 429 64
2020-05-26 11:42:46 GMT 55.624802 40.395870 33,000 71 430 -128
2020-05-26 11:42:43 GMT 55.622662 40.384541 33,000 71 430 64
2020-05-26 11:42:40 GMT 55.620392 40.372425 33,000 71 429 128
2020-05-26 11:42:37 GMT 55.618332 40.361626 33,000 71 429 64
2020-05-26 11:42:33 GMT 55.616135 40.350204 33,000 71 429 64
2020-05-26 11:42:30 GMT 55.614304 40.340382 33,000 71 429 0
2020-05-26 11:42:26 GMT 55.611721 40.326862 33,000 71 429 -64
2020-05-26 11:42:22 GMT 55.609489 40.315105 33,000 71 428 -64
2020-05-26 11:42:19 GMT 55.607346 40.303860 33,000 71 428 -128
2020-05-26 11:42:15 GMT 55.605251 40.292873 33,000 71 428 -64
2020-05-26 11:42:12 GMT 55.602596 40.279057 33,000 71 428 -64
2020-05-26 11:42:09 GMT 55.600388 40.267387 33,000 71 427 0
2020-05-26 11:42:06 GMT 55.596817 40.248745 33,000 71 427 0
2020-05-26 11:42:03 GMT 55.596817 40.248745 33,000 71 427 0
2020-05-26 11:41:59 GMT 55.594666 40.237595 33,000 71 427 64
2020-05-26 11:41:55 GMT 55.591564 40.221291 33,000 71 427 64
2020-05-26 11:41:51 GMT 55.589237 40.209187 33,000 71 427 64
2020-05-26 11:41:47 GMT 55.587421 40.199833 33,000 71 427 0
2020-05-26 11:41:44 GMT 55.585236 40.188416 33,000 71 429 0
2020-05-26 11:41:37 GMT 55.580997 40.166531 33,000 71 430 -128
2020-05-26 11:41:32 GMT 55.577362 40.147705 33,025 71 430 -192
2020-05-26 11:41:28 GMT 55.574993 40.135715 33,025 71 430 -192
2020-05-26 11:41:23 GMT 55.571686 40.118637 33,050 70 430 64
2020-05-26 11:41:18 GMT 55.568241 40.101128 33,050 70 432 320
2020-05-26 11:41:11 GMT 55.563766 40.078625 33,000 71 434 320
2020-05-26 11:41:05 GMT 55.560333 40.059731 33,000 74 433 192
2020-05-26 11:41:02 GMT 55.558002 40.044651 32,975 76 432 0
2020-05-26 11:40:57 GMT 55.556374 40.032207 32,975 78 431 -192
2020-05-26 11:40:51 GMT 55.554062 40.009876 33,000 81 429 64
2020-05-26 11:40:45 GMT 55.552692 39.990921 33,000 88 420 0
2020-05-26 11:40:40 GMT 55.551903 39.973755 33,000 86 422 -64
2020-05-26 11:40:36 GMT 55.551636 39.961937 33,000 89 419 0
2020-05-26 11:40:30 GMT 55.551670 39.941223 33,000 91 415 -256
2020-05-26 11:40:25 GMT 55.552185 39.923317 33,000 94 412 0
2020-05-26 11:40:20 GMT 55.553192 39.904091 33,000 95 409 64
2020-05-26 11:40:15 GMT 55.553951 39.890671 33,000 95 408 0
2020-05-26 11:40:11 GMT 55.554928 39.872730 33,000 95 408 0
2020-05-26 11:40:05 GMT 55.555954 39.854362 33,000 95 407 0
2020-05-26 11:39:59 GMT 55.556900 39.836342 33,000 95 408 64
2020-05-26 11:39:55 GMT 55.557587 39.823776 33,000 95 408 0
2020-05-26 11:39:50 GMT 55.559071 39.796257 33,025 95 409 0
2020-05-26 11:39:43 GMT 55.559738 39.784073 33,000 95 409 0
2020-05-26 11:39:40 GMT 55.560425 39.771091 33,000 95 410 0
2020-05-26 11:39:37 GMT 55.560837 39.762852 33,000 95 411 0
2020-05-26 11:39:34 GMT 55.561260 39.754887 33,000 95 412 -256
2020-05-26 11:39:29 GMT 55.562191 39.737549 33,000 95 413 0
2020-05-26 11:39:24 GMT 55.563030 39.722099 33,000 95 413 128
2020-05-26 11:39:19 GMT 55.564007 39.703472 33,000 95 413 128
2020-05-26 11:39:15 GMT 55.564842 39.687511 33,000 95 414 -64
2020-05-26 11:39:09 GMT 55.565777 39.669743 33,000 95 415 -128
2020-05-26 11:39:04 GMT 55.566650 39.652573 33,000 95 416 -192
2020-05-26 11:38:58 GMT 55.567612 39.634678 33,025 95 416 -128
2020-05-26 11:38:54 GMT 55.568474 39.617813 33,025 95 415 0
2020-05-26 11:38:48 GMT 55.569359 39.600822 33,025 95 415 64
2020-05-26 11:38:44 GMT 55.570198 39.584167 33,025 95 416 128
2020-05-26 11:38:37 GMT 55.571266 39.563568 33,025 95 418 0
2020-05-26 11:38:33 GMT 55.571960 39.549950 33,000 95 419 64
2020-05-26 11:38:27 GMT 55.573288 39.523399 33,000 95 421 0
2020-05-26 11:38:23 GMT 55.573830 39.512589 33,025 95 421 192
2020-05-26 11:38:19 GMT 55.574707 39.495682 33,025 95 423 -64
2020-05-26 11:38:16 GMT 55.574993 39.489586 33,000 95 423 192
2020-05-26 11:38:13 GMT 55.575550 39.479370 33,000 95 423 0
2020-05-26 11:38:08 GMT 55.576576 39.458771 33,000 95 421 192
2020-05-26 11:38:03 GMT 55.577271 39.445328 33,000 95 421 128
2020-05-26 11:37:56 GMT 55.578392 39.423237 33,000 95 421 256
2020-05-26 11:37:53 GMT 55.579044 39.411049 32,975 95 421 192
2020-05-26 11:37:48 GMT 55.579834 39.395000 32,975 95 420 768
2020-05-26 11:37:45 GMT 55.580952 39.373028 32,850 95 416 1088
2020-05-26 11:37:39 GMT 55.581573 39.361435 32,800 95 418 1088
2020-05-26 11:37:35 GMT 55.582207 39.348907 32,750 95 417 1024
2020-05-26 11:37:30 GMT 55.583038 39.332386 32,675 95 416 1024
2020-05-26 11:37:26 GMT 55.583725 39.319321 32,550 95 415 1024
2020-05-26 11:37:22 GMT 55.584595 39.301758 32,500 95 415 960
2020-05-26 11:37:18 GMT 55.585236 39.288998 32,450 95 415 1024
2020-05-26 11:37:15 GMT 55.585739 39.279285 32,400 95 415 960
2020-05-26 11:37:11 GMT 55.586243 39.268883 32,350 95 414 960
2020-05-26 11:37:07 GMT 55.587021 39.253403 32,250 95 413 1024
2020-05-26 11:37:04 GMT 55.587467 39.244797 32,225 95 413 1088
2020-05-26 11:37:01 GMT 55.588120 39.231834 32,150 95 412 896
2020-05-26 11:36:55 GMT 55.589005 39.214840 32,050 95 411 1088
2020-05-26 11:36:52 GMT 55.589561 39.203938 32,025 95 410 960
2020-05-26 11:36:48 GMT 55.590317 39.188980 31,950 95 409 1088
2020-05-26 11:36:45 GMT 55.590729 39.180740 31,900 95 408 896
2020-05-26 11:36:41 GMT 55.591938 39.156219 31,675 94 406 1152
2020-05-26 11:36:37 GMT 55.591938 39.156219 31,775 95 406 1088
2020-05-26 11:36:33 GMT 55.593193 39.131153 31,675 94 405 1536
2020-05-26 11:36:30 GMT 55.593193 39.131153 31,625 94 404 1728
2020-05-26 11:36:27 GMT 55.593658 39.121368 31,550 94 404 1728
2020-05-26 11:36:24 GMT 55.594032 39.113300 31,475 94 404 1856
2020-05-26 11:36:21 GMT 55.594528 39.103504 31,375 94 404 1984
2020-05-26 11:36:17 GMT 55.595215 39.088856 31,250 94 404 2048
2020-05-26 11:36:14 GMT 55.595707 39.078629 31,125 94 404 2112
2020-05-26 11:36:11 GMT 55.596176 39.069714 31,050 94 404 2176
2020-05-26 11:36:07 GMT 55.596817 39.055649 30,900 94 404 2368
2020-05-26 11:36:03 GMT 55.597321 39.045578 30,775 94 405 2304
2020-05-26 11:36:00 GMT 55.597824 39.035172 30,650 94 405 2240
2020-05-26 11:35:57 GMT 55.598454 39.021809 30,500 94 406 2240
2020-05-26 11:35:54 GMT 55.598969 39.010906 30,375 94 406 2176
2020-05-26 11:35:50 GMT 55.599426 39.001297 30,250 94 407 2048
2020-05-26 11:35:46 GMT 55.600067 38.987480 30,125 94 407 2048
2020-05-26 11:35:43 GMT 55.600571 38.977577 30,000 94 407 1920
2020-05-26 11:35:39 GMT 55.601395 38.960518 29,850 94 407 1856
2020-05-26 11:35:35 GMT 55.601761 38.952026 29,775 94 407 1792
2020-05-26 11:35:30 GMT 55.602768 38.931137 29,575 94 406 1856
2020-05-26 11:35:25 GMT 55.603344 38.918896 29,475 94 405 1856
2020-05-26 11:35:21 GMT 55.604233 38.900173 29,375 94 405 1920
2020-05-26 11:35:18 GMT 55.604462 38.895348 29,300 94 405 1920
2020-05-26 11:35:15 GMT 55.604874 38.886356 29,150 94 404 1920
2020-05-26 11:35:12 GMT 55.605423 38.875122 29,050 94 404 1984
2020-05-26 11:35:08 GMT 55.606064 38.861473 28,900 94 404 1856
2020-05-26 11:35:05 GMT 55.606522 38.851234 28,775 94 403 1856
2020-05-26 11:35:02 GMT 55.606976 38.841648 28,700 94 403 1856
2020-05-26 11:34:59 GMT 55.607487 38.831264 28,625 94 402 1792
2020-05-26 11:34:55 GMT 55.608032 38.819191 28,500 94 402 1728
2020-05-26 11:34:50 GMT 55.608810 38.801880 28,300 94 400 1536
2020-05-26 11:34:47 GMT 55.609207 38.793839 28,275 94 400 1600
2020-05-26 11:34:44 GMT 55.609768 38.781395 28,175 94 399 1600
2020-05-26 11:34:41 GMT 55.610046 38.774830 28,125 94 398 1728
2020-05-26 11:34:38 GMT 55.610550 38.763512 28,075 94 398 1792
2020-05-26 11:34:35 GMT 55.611023 38.752556 27,925 94 397 1984
2020-05-26 11:34:31 GMT 55.611488 38.741310 27,825 94 396 1984
2020-05-26 11:34:27 GMT 55.611969 38.730053 27,675 94 395 1984
2020-05-26 11:34:24 GMT 55.612427 38.718567 27,575 93 394 1920
2020-05-26 11:34:19 GMT 55.613022 38.702671 27,425 94 394 1728
2020-05-26 11:34:14 GMT 55.613770 38.686893 27,275 96 391 1856
2020-05-26 11:34:10 GMT 55.614609 38.674538 27,050 98 387 1920
2020-05-26 11:34:06 GMT 55.615585 38.662888 27,050 99 386 1984
2020-05-26 11:34:03 GMT 55.616547 38.653149 26,950 100 385 2176
2020-05-26 11:34:00 GMT 55.617680 38.643208 26,800 102 383 2240
2020-05-26 11:33:57 GMT 55.618706 38.635223 26,725 104 381 2112
2020-05-26 11:33:54 GMT 55.620255 38.624352 26,600 105 381 2240
2020-05-26 11:33:51 GMT 55.623505 38.604710 26,450 112 369 1856
2020-05-26 11:33:47 GMT 55.623505 38.604710 26,350 108 378 2176
2020-05-26 11:33:44 GMT 55.625610 38.593803 26,225 110 376 2240
2020-05-26 11:33:41 GMT 55.627487 38.584900 26,100 111 374 2304
2020-05-26 11:33:37 GMT 55.629456 38.576077 25,175 112 370 1984
2020-05-26 11:33:34 GMT 55.632111 38.564842 25,925 112 373 2240
2020-05-26 11:33:31 GMT 55.634262 38.555687 25,725 112 372 2240
2020-05-26 11:33:28 GMT 55.636253 38.547249 25,600 112 372 2240
2020-05-26 11:33:23 GMT 55.638817 38.536518 25,425 112 371 2304
2020-05-26 11:33:20 GMT 55.640770 38.528194 25,275 112 371 2176
2020-05-26 11:33:16 GMT 55.643555 38.516483 25,275 112 371 2176
2020-05-26 11:33:13 GMT 55.645660 38.507423 25,075 112 370 1920
2020-05-26 11:33:07 GMT 55.649048 38.493095 24,925 112 368 1856
2020-05-26 11:33:03 GMT 55.652267 38.479527 24,750 112 366 1856
2020-05-26 11:32:57 GMT 55.656410 38.462021 24,575 112 364 1536
2020-05-26 11:32:54 GMT 55.657715 38.456440 24,525 112 363 1344
2020-05-26 11:32:50 GMT 55.661022 38.442364 24,125 112 356 640
2020-05-26 11:32:47 GMT 55.663055 38.433838 24,350 112 357 640
2020-05-26 11:32:43 GMT 55.665436 38.423851 24,300 112 354 512
2020-05-26 11:32:37 GMT 55.668640 38.410202 24,250 112 346 512
2020-05-26 11:32:32 GMT 55.671844 38.396633 24,225 112 342 896
2020-05-26 11:32:28 GMT 55.673916 38.387859 24,175 112 338 1472
2020-05-26 11:32:25 GMT 55.676331 38.377491 24,075 112 335 2112
2020-05-26 11:32:22 GMT 55.677826 38.371296 24,000 112 334 2496
2020-05-26 11:32:15 GMT 55.681644 38.354900 23,725 112 333 2560
2020-05-26 11:32:12 GMT 55.683746 38.345947 23,650 112 333 2624
2020-05-26 11:32:07 GMT 55.686298 38.334904 23,325 112 332 2688
2020-05-26 11:32:04 GMT 55.688919 38.323643 23,175 112 332 2624
2020-05-26 11:32:01 GMT 55.689697 38.320312 23,125 112 331 2560
2020-05-26 11:31:55 GMT 55.694046 38.301586 22,525 112 330 2432
2020-05-26 11:31:52 GMT 55.695557 38.295010 22,700 112 330 2496
2020-05-26 11:31:47 GMT 55.698257 38.283192 22,500 111 329 2496
2020-05-26 11:31:44 GMT 55.700043 38.275284 22,425 111 328 2496
2020-05-26 11:31:41 GMT 55.701462 38.269127 22,325 112 329 2496
2020-05-26 11:31:37 GMT 55.704117 38.258224 22,000 115 325 2624
2020-05-26 11:31:34 GMT 55.705898 38.251476 21,975 115 325 2624
2020-05-26 11:31:31 GMT 55.708008 38.243908 21,825 117 324 2560
2020-05-26 11:31:26 GMT 55.711903 38.231133 21,525 119 321 2432
2020-05-26 11:31:23 GMT 55.714279 38.223850 21,475 121 320 2432
2020-05-26 11:31:18 GMT 55.717770 38.213966 21,250 124 317 2432
2020-05-26 11:31:15 GMT 55.720963 38.205540 21,125 125 316 2496
2020-05-26 11:31:10 GMT 55.723663 38.198795 19,375 126 304 2880
2020-05-26 11:31:07 GMT 55.727509 38.189644 20,650 127 312 2944
2020-05-26 11:31:04 GMT 55.728790 38.186729 20,650 127 312 2944
2020-05-26 11:31:01 GMT 55.732616 38.177662 20,450 127 312 2944
2020-05-26 11:30:55 GMT 55.737881 38.165386 20,250 127 307 2496
2020-05-26 11:30:50 GMT 55.741554 38.156803 19,900 127 311 2560
2020-05-26 11:30:46 GMT 55.745140 38.148396 19,725 126 302 3392
2020-05-26 11:30:43 GMT 55.747749 38.142216 19,725 127 309 2368
2020-05-26 11:30:40 GMT 55.750397 38.135960 19,650 126 309 2368
2020-05-26 11:30:37 GMT 55.755432 38.124142 19,425 127 305 2624
2020-05-26 11:30:34 GMT 55.755432 38.124142 19,275 127 305 2816
2020-05-26 11:30:31 GMT 55.757523 38.119297 19,250 126 304 2880
2020-05-26 11:30:28 GMT 55.761154 38.110714 19,050 127 303 3072
2020-05-26 11:30:23 GMT 55.764542 38.102669 18,825 126 302 3264
2020-05-26 11:30:19 GMT 55.767532 38.095695 18,650 126 302 3328
2020-05-26 11:30:16 GMT 55.770035 38.089848 18,400 126 302 3392
2020-05-26 11:30:13 GMT 55.773026 38.082733 18,275 126 302 3392
2020-05-26 11:30:10 GMT 55.776283 38.075092 18,000 126 303 2944
2020-05-26 11:30:07 GMT 55.778458 38.069874 17,900 126 303 3008
2020-05-26 11:30:04 GMT 55.780567 38.064880 17,725 126 303 3008
2020-05-26 11:30:01 GMT 55.783127 38.058872 17,600 126 303 3008
2020-05-26 11:29:58 GMT 55.785549 38.053036 17,475 126 301 3200
2020-05-26 11:29:55 GMT 55.788757 38.045406 17,275 126 301 3264
2020-05-26 11:29:52 GMT 55.791321 38.039330 17,125 126 301 3264
2020-05-26 11:29:49 GMT 55.795715 38.028843 16,825 126 300 3136
2020-05-26 11:29:43 GMT 55.798534 38.021965 16,650 126 299 3200
2020-05-26 11:29:40 GMT 55.800522 38.017357 16,500 126 298 3392
2020-05-26 11:29:37 GMT 55.804367 38.008118 16,250 126 298 3840
2020-05-26 11:29:33 GMT 55.805939 38.004372 16,150 126 298 4032
2020-05-26 11:29:30 GMT 55.808807 37.997463 15,925 126 298 4032
2020-05-26 11:29:26 GMT 55.812363 37.989094 14,200 126 299 4032
2020-05-26 11:29:22 GMT 55.815811 37.980820 15,275 126 300 3776
2020-05-26 11:29:19 GMT 55.818420 37.974575 15,150 126 301 3712
2020-05-26 11:29:16 GMT 55.820389 37.969833 14,975 126 301 3392
2020-05-26 11:29:11 GMT 55.824326 37.960510 14,600 126 301 3136
2020-05-26 11:29:08 GMT 55.826702 37.954845 14,550 126 301 2944
2020-05-26 11:28:59 GMT 55.834244 37.936821 13,975 126 298 2944
2020-05-26 11:28:51 GMT 55.840668 37.921543 13,775 126 295 3008
2020-05-26 11:28:48 GMT 55.843597 37.914566 13,550 126 293 3200
2020-05-26 11:28:45 GMT 55.846252 37.908241 13,425 126 293 3136
2020-05-26 11:28:38 GMT 55.851883 37.894840 13,000 126 290 3200
2020-05-26 11:28:35 GMT 55.854309 37.889015 12,850 126 289 3328
2020-05-26 11:28:29 GMT 55.858978 37.877865 12,525 126 287 3520
2020-05-26 11:28:25 GMT 55.865158 37.863297 12,175 126 287 3456
2020-05-26 11:28:21 GMT 55.865158 37.863297 12,050 127 287 3328
2020-05-26 11:28:18 GMT 55.867340 37.858112 11,775 127 285 3136
2020-05-26 11:28:15 GMT 55.870087 37.851677 11,725 127 285 3136
2020-05-26 11:28:11 GMT 55.873947 37.842575 11,475 126 284 3456
2020-05-26 11:28:05 GMT 55.878700 37.831333 11,125 127 282 3648
2020-05-26 11:28:01 GMT 55.883495 37.820004 7,100 127 282 3840
2020-05-26 11:27:57 GMT 55.883495 37.820004 10,500 126 281 3904
2020-05-26 11:27:54 GMT 55.886581 37.812778 10,500 126 281 3904
2020-05-26 11:27:50 GMT 55.892433 37.798889 10,050 126 281 3840
2020-05-26 11:27:46 GMT 55.892433 37.798889 10,050 126 281 3840
2020-05-26 11:27:43 GMT 55.895130 37.792454 9,775 126 282 3648
2020-05-26 11:27:40 GMT 55.898392 37.784729 9,525 126 282 3648
2020-05-26 11:27:36 GMT 55.900623 37.779491 9,350 126 281 3584
2020-05-26 11:27:31 GMT 55.904297 37.770664 9,050 126 280 3456
2020-05-26 11:27:27 GMT 55.911209 37.753933 8,750 126 279 3520
2020-05-26 11:27:23 GMT 55.911209 37.753933 8,525 126 279 3520
2020-05-26 11:27:20 GMT 55.912727 37.750313 8,350 126 278 3456
2020-05-26 11:27:17 GMT 55.914825 37.745113 8,350 126 278 3456
2020-05-26 11:27:14 GMT 55.917618 37.738209 8,050 125 276 3456
2020-05-26 11:27:06 GMT 55.923203 37.724056 7,625 124 275 3456
2020-05-26 11:27:03 GMT 55.925446 37.718311 7,425 124 272 3392
2020-05-26 11:26:59 GMT 55.928928 37.709454 7,250 124 271 3392
2020-05-26 11:26:56 GMT 55.932934 37.699158 6,975 124 270 3712
2020-05-26 11:26:53 GMT 55.932934 37.699158 6,825 124 268 3904
2020-05-26 11:26:46 GMT 55.937355 37.687824 6,400 124 267 4224
2020-05-26 11:26:42 GMT 55.943081 37.673149 5,725 124 268 2240
2020-05-26 11:26:39 GMT 55.943081 37.673149 5,875 124 268 2624
2020-05-26 11:26:35 GMT 55.944763 37.668789 5,725 124 268 2496
2020-05-26 11:26:32 GMT 55.947456 37.661819 5,600 124 266 1664
2020-05-26 11:26:27 GMT 55.953598 37.646069 5,425 124 265 1408
2020-05-26 11:26:21 GMT 55.954674 37.643192 5,325 124 265 1536
2020-05-26 11:26:16 GMT 55.958771 37.632751 5,175 124 267 1280
2020-05-26 11:26:12 GMT 55.962074 37.624310 5,075 125 266 1408
2020-05-26 11:26:05 GMT 55.969162 37.606533 4,825 125 261 2880
2020-05-26 11:26:01 GMT 55.969162 37.606533 4,750 122 258 2688
2020-05-26 11:25:55 GMT 55.972874 37.595646 4,475 114 254 1792
2020-05-26 11:25:51 GMT 55.974609 37.587807 4,350 105 245 1024
2020-05-26 11:25:47 GMT 55.975754 37.579903 4,250 92 229 896
2020-05-26 11:25:43 GMT 55.976273 37.571442 4,225 91 227 768
2020-05-26 11:25:39 GMT 55.976349 37.565918 4,175 90 217 640
2020-05-26 11:25:35 GMT 55.976349 37.556931 4,125 90 210 640
2020-05-26 11:25:29 GMT 55.976395 37.547276 3,750 93 146 2880
2020-05-26 11:25:24 GMT 55.976414 37.540283 3,950 90 189 1216
2020-05-26 11:25:21 GMT 55.976460 37.534618 3,750 88 144 2624
2020-05-26 11:25:15 GMT 55.976551 37.524921 3,775 91 170 960
2020-05-26 11:25:12 GMT 55.976551 37.521572 3,725 91 165 1216
2020-05-26 11:25:04 GMT 55.976738 37.511787 3,550 91 150 2432
2020-05-26 11:25:01 GMT 55.976784 37.508526 2,750 93 146 2880
2020-05-26 11:24:54 GMT 55.976990 37.498253 3,125 92 146 2560
2020-05-26 11:24:49 GMT 55.977173 37.493008 2,925 92 146 2624
2020-05-26 11:24:42 GMT 55.977436 37.483292 2,550 93 146 2816
2020-05-26 11:24:33 GMT 55.977764 37.474194 2,225 92 145 2560
2020-05-26 11:24:30 GMT 55.977814 37.471287 2,125 91 145 2624
2020-05-26 11:24:23 GMT 55.977859 37.462795 1,725 86 144 2432
2020-05-26 11:24:20 GMT 55.977722 37.459217 1,675 80 144 2496
2020-05-26 11:24:12 GMT 55.976440 37.449394 1,350 75 140 1920
2020-05-26 11:24:08 GMT 55.975899 37.445869 1,250 75 139 1920
2020-05-26 11:24:00 GMT 55.974457 37.436085 875 75 140 2432
2020-05-26 11:23:57 GMT 55.974037 37.433250 875 75 140 2432
2020-05-26 11:23:51 GMT 55.973061 37.426643 225 75 142 2368
2020-05-26 11:23:39 GMT 55.971039 37.412693 225 75 146 1024
2020-05-26 11:23:31 GMT 55.969734 37.403870 0 75 120
2020-05-26 11:23:15 GMT 55.967892 37.391594 0 75 51
2020-05-26 11:23:10 GMT 55.967709 37.390358 0 75 37
2020-05-26 11:21:56 GMT 55.967514 37.389076 0 64 1
2020-05-26 11:21:47 GMT 55.967480 37.388866 0 73 7
2020-05-26 11:21:33 GMT 55.967571 37.388245 0 143 7
2020-05-26 11:16:47 GMT 55.968773 37.387619 0 255 8
2020-05-26 11:16:37 GMT 55.969162 37.387432 0 255 13
2020-05-26 11:16:27 GMT 55.969757 37.387161 0 255 12
2020-05-26 11:16:00 GMT 55.971069 37.386517 0 255 9
2020-05-26 11:15:46 GMT 55.971523 37.386730 0 255 8
2020-05-26 11:15:40 GMT 55.971600 37.387119 0 255 13
2020-05-26 11:15:30 GMT 55.971771 37.388287 0 255 17
2020-05-26 11:15:20 GMT 55.971989 37.389671 0 255 20
2020-05-26 11:15:08 GMT 55.972286 37.391697 0 255 26
2020-05-26 11:14:49 GMT 55.972839 37.395378 0 255 24
2020-05-26 11:14:38 GMT 55.973179 37.397633 0 255 26
2020-05-26 11:14:28 GMT 55.973465 37.399605 0 255 24
2020-05-26 11:14:18 GMT 55.973736 37.401409 0 255 21
2020-05-26 11:14:06 GMT 55.974049 37.403469 0 255 24
2020-05-26 11:13:54 GMT 55.974354 37.405487 0 255 22
2020-05-26 11:13:46 GMT 55.974552 37.406864 0 255 20
2020-05-26 11:13:28 GMT 55.975067 37.410362 0 255 25

Making use of Plane Finder data

You are free to use the raw flight data, aircraft information and images provided in this report for your own purposes provided the data is correctly attributed to Plane Finder. We ask that you please credit Plane Finder and link to planefinder.net in close proximity to the content.

Optionally one of the following logos (no smaller then 150x24px) can be used and must link to planefinder.net

Embedding the Plane Finder map

You are welcome to embed the Plane Finder playback map on your website to offer visitors a more interactive experience. We suggest using the following HTML code:

<iframe src="//planefinder.net/data/report/SU1768-RA-89059-7700-squawk-2020-05-26/map" width="800" height="600" seamless="seamless"></iframe>

Where our data comes from

Plane Finder has a global network of data feeds and antenna radars that receive data broadcast directly from aircraft. The primary technologies used are ADS-B and MLAT. We also show feeds from the FAA and a FLARM glider feed.

Click here to find out more about the Plane Finder network.

How we collect our data